createdAt,value
2022-12-28T00:01:06.277Z,47.10
2022-12-28T00:03:08.005Z,47.10
2022-12-28T00:05:09.819Z,47.10
2022-12-28T00:07:11.626Z,47.10
2022-12-28T00:09:13.476Z,47.10
2022-12-28T00:11:28.539Z,47.10
2022-12-28T00:13:34.117Z,47.10
2022-12-28T00:15:37.256Z,47.10
2022-12-28T00:17:38.901Z,47.10
2022-12-28T00:19:40.493Z,47.10
2022-12-28T00:21:42.942Z,47.10
2022-12-28T00:23:44.682Z,47.10
2022-12-28T00:25:46.326Z,47.10
2022-12-28T00:27:47.979Z,47.10
2022-12-28T00:29:49.622Z,47.10
2022-12-28T00:31:51.426Z,47.10
2022-12-28T00:33:53.451Z,47.10
2022-12-28T00:36:00.134Z,47.10
2022-12-28T00:38:01.798Z,47.10
2022-12-28T00:40:03.703Z,47.10
2022-12-28T00:42:05.382Z,47.00
2022-12-28T00:44:07.069Z,47.00
2022-12-28T00:46:08.766Z,47.00
2022-12-28T00:48:10.527Z,47.00
2022-12-28T00:50:12.348Z,47.00
2022-12-28T00:52:13.992Z,47.00
2022-12-28T00:54:15.687Z,47.00
2022-12-28T00:56:19.689Z,46.90
2022-12-28T00:58:21.413Z,47.00
2022-12-28T01:00:23.071Z,46.90
2022-12-28T01:02:24.744Z,46.90
2022-12-28T01:04:26.414Z,46.90
2022-12-28T01:06:28.949Z,46.90
2022-12-28T01:08:30.580Z,46.90
2022-12-28T01:10:32.244Z,46.90
2022-12-28T01:12:38.103Z,46.90
2022-12-28T01:14:40.109Z,46.90
2022-12-28T01:16:41.793Z,46.90
2022-12-28T01:18:44.694Z,46.80
2022-12-28T01:20:46.368Z,46.80
2022-12-28T01:22:48.047Z,46.90
2022-12-28T01:24:49.724Z,46.90
2022-12-28T01:26:51.354Z,46.90
2022-12-28T01:28:52.977Z,46.90
2022-12-28T01:30:54.667Z,46.80
2022-12-28T01:32:59.515Z,46.90
2022-12-28T01:35:01.181Z,46.80
2022-12-28T01:37:02.905Z,46.80
2022-12-28T01:39:06.295Z,46.80
2022-12-28T01:41:09.897Z,46.80
2022-12-28T01:43:14.717Z,46.80
2022-12-28T01:45:31.665Z,46.80
2022-12-28T01:47:35.662Z,46.80
2022-12-28T01:50:00.590Z,46.70
2022-12-28T01:52:16.930Z,46.70
2022-12-28T01:54:20.765Z,46.80
2022-12-28T01:56:23.308Z,46.70
2022-12-28T01:58:28.342Z,46.70
2022-12-28T02:00:30.075Z,46.70
2022-12-28T02:02:32.093Z,46.80
2022-12-28T02:04:33.940Z,46.80
2022-12-28T02:06:35.648Z,46.70
2022-12-28T02:08:46.351Z,46.70
2022-12-28T02:10:48.821Z,46.70
2022-12-28T02:12:51.575Z,46.70
2022-12-28T02:14:53.342Z,46.70
2022-12-28T02:16:55.659Z,46.70
2022-12-28T02:18:57.726Z,46.70
2022-12-28T02:21:26.058Z,46.70
2022-12-28T02:23:33.489Z,46.70
2022-12-28T02:25:53.226Z,46.70
2022-12-28T02:28:01.624Z,46.70
2022-12-28T02:30:11.493Z,46.60
2022-12-28T02:32:39.618Z,46.70
2022-12-28T02:35:15.346Z,46.60
2022-12-28T02:37:24.483Z,46.60
2022-12-28T02:39:35.618Z,46.60
2022-12-28T02:41:38.760Z,46.60
2022-12-28T02:43:40.736Z,46.70
2022-12-28T02:46:05.594Z,46.60
2022-12-28T02:48:27.237Z,46.60
2022-12-28T02:50:46.909Z,46.60
2022-12-28T02:53:19.597Z,46.60
2022-12-28T02:55:56.060Z,46.60
2022-12-28T02:58:03.660Z,46.60
2022-12-28T03:00:12.397Z,46.50
2022-12-28T03:02:43.041Z,46.50
2022-12-28T03:05:06.370Z,46.60
2022-12-28T03:08:04.071Z,46.50
2022-12-28T03:10:18.595Z,46.50
2022-12-28T03:12:26.479Z,46.50
2022-12-28T03:14:43.512Z,46.50
2022-12-28T03:17:08.275Z,46.50
2022-12-28T03:19:29.206Z,46.50
2022-12-28T03:21:51.249Z,46.50
2022-12-28T03:24:14.214Z,46.50
2022-12-28T03:26:35.728Z,46.50
2022-12-28T03:29:00.696Z,46.60
2022-12-28T03:31:08.947Z,46.50
2022-12-28T03:33:11.785Z,46.50
2022-12-28T03:35:13.660Z,46.50
2022-12-28T03:37:25.692Z,46.50
2022-12-28T03:39:44.950Z,46.50
2022-12-28T03:42:16.467Z,46.40
2022-12-28T03:44:24.642Z,46.40
2022-12-28T03:46:43.799Z,46.50
2022-12-28T03:48:47.112Z,46.40
2022-12-28T03:50:50.347Z,46.50
2022-12-28T03:52:52.636Z,46.50
2022-12-28T03:54:54.275Z,46.50
2022-12-28T03:56:55.937Z,46.40
2022-12-28T03:58:57.918Z,46.40
2022-12-28T04:00:59.642Z,46.40
2022-12-28T04:03:01.386Z,46.40
2022-12-28T04:05:03.648Z,46.40
2022-12-28T04:07:05.249Z,46.40
2022-12-28T04:09:07.228Z,46.40
2022-12-28T04:11:09.858Z,46.30
2022-12-28T04:13:11.461Z,46.40
2022-12-28T04:15:13.178Z,46.30
2022-12-28T04:17:15.802Z,46.30
2022-12-28T04:19:17.545Z,46.30
2022-12-28T04:21:19.190Z,46.30
2022-12-28T04:23:20.988Z,46.30
2022-12-28T04:25:22.706Z,46.30
2022-12-28T04:27:24.361Z,46.30
2022-12-28T04:29:25.950Z,46.30
2022-12-28T04:31:28.932Z,46.30
2022-12-28T04:33:36.467Z,46.30
2022-12-28T04:35:38.077Z,46.30
2022-12-28T04:37:39.721Z,46.30
2022-12-28T04:39:55.742Z,46.30
2022-12-28T04:41:58.267Z,46.30
2022-12-28T04:43:59.984Z,46.20
2022-12-28T04:46:04.432Z,46.10
2022-12-28T04:48:06.186Z,46.10
2022-12-28T04:50:08.120Z,46.00
2022-12-28T04:52:09.760Z,46.00
2022-12-28T04:54:14.615Z,45.90
2022-12-28T04:56:17.844Z,45.90
2022-12-28T04:58:19.548Z,45.70
2022-12-28T05:00:21.278Z,45.70
2022-12-28T05:02:22.970Z,45.70
2022-12-28T05:04:24.610Z,45.70
2022-12-28T05:06:27.719Z,45.80
2022-12-28T05:08:35.290Z,45.70
2022-12-28T05:10:36.944Z,45.80
2022-12-28T05:12:38.549Z,45.70
2022-12-28T05:14:42.099Z,45.80
2022-12-28T05:16:43.812Z,45.70
2022-12-28T05:18:45.679Z,45.70
2022-12-28T05:20:47.341Z,45.70
2022-12-28T05:22:49.007Z,45.70
2022-12-28T05:24:50.651Z,45.70
2022-12-28T05:26:52.271Z,45.70
2022-12-28T05:28:55.422Z,45.70
2022-12-28T05:31:06.000Z,45.70
2022-12-28T05:33:07.653Z,45.60
2022-12-28T05:35:09.791Z,45.70
2022-12-28T05:37:15.647Z,45.90
2022-12-28T05:39:20.151Z,45.80
2022-12-28T05:41:27.642Z,45.80
2022-12-28T05:43:30.303Z,45.80
2022-12-28T05:45:32.014Z,45.80
2022-12-28T05:47:33.667Z,46.10
2022-12-28T05:49:35.272Z,46.20
2022-12-28T05:51:39.626Z,46.30
2022-12-28T05:53:42.377Z,46.40
2022-12-28T05:55:43.981Z,46.30
2022-12-28T05:57:45.638Z,46.40
2022-12-28T05:59:47.282Z,46.40
2022-12-28T06:01:49.059Z,46.50
2022-12-28T06:03:59.365Z,46.30
2022-12-28T06:06:11.383Z,46.40
2022-12-28T06:08:15.124Z,46.40
2022-12-28T06:10:19.904Z,46.40
2022-12-28T06:12:21.509Z,46.40
2022-12-28T06:14:23.113Z,46.20
2022-12-28T06:16:29.936Z,46.20
2022-12-28T06:18:31.638Z,46.30
2022-12-28T06:20:33.245Z,46.10
2022-12-28T06:22:36.098Z,46.20
2022-12-28T06:24:37.782Z,45.80
2022-12-28T06:26:41.493Z,45.70
2022-12-28T06:28:44.130Z,45.80
2022-12-28T06:30:52.232Z,45.80
2022-12-28T06:32:56.955Z,45.70
2022-12-28T06:34:58.610Z,45.70
2022-12-28T06:37:00.457Z,45.70
2022-12-28T06:39:04.214Z,45.60
2022-12-28T06:41:15.424Z,45.60
2022-12-28T06:43:17.150Z,45.60
2022-12-28T06:45:18.886Z,45.50
2022-12-28T06:47:20.504Z,45.50
2022-12-28T06:49:22.145Z,45.50
2022-12-28T06:51:29.870Z,45.40
2022-12-28T06:53:34.073Z,45.40
2022-12-28T06:55:35.702Z,46.10
2022-12-28T06:57:37.360Z,45.40
2022-12-28T06:59:39.026Z,45.30
2022-12-28T07:01:44.384Z,45.30
2022-12-28T07:03:47.763Z,45.30
2022-12-28T07:05:49.851Z,45.30
2022-12-28T07:07:51.505Z,45.80
2022-12-28T07:09:53.112Z,45.20
2022-12-28T07:11:54.782Z,45.20
2022-12-28T07:13:56.601Z,45.20
2022-12-28T07:16:02.503Z,45.10
2022-12-28T07:18:04.242Z,45.10
2022-12-28T07:20:06.498Z,45.00
2022-12-28T07:22:08.547Z,45.00
2022-12-28T07:24:10.495Z,45.00
2022-12-28T07:26:15.312Z,45.00
2022-12-28T07:28:16.938Z,45.00
2022-12-28T07:30:18.717Z,45.00
2022-12-28T07:32:20.401Z,45.00
2022-12-28T07:34:23.430Z,45.00
2022-12-28T07:36:26.754Z,45.00
2022-12-28T07:38:28.449Z,45.00
2022-12-28T07:40:30.081Z,45.10
2022-12-28T07:42:31.716Z,45.20
2022-12-28T07:44:38.013Z,45.40
2022-12-28T07:46:40.037Z,45.40
2022-12-28T07:48:42.905Z,45.40
2022-12-28T07:50:44.507Z,46.10
2022-12-28T07:52:46.084Z,45.50
2022-12-28T07:54:47.741Z,45.50
2022-12-28T07:56:49.395Z,45.50
2022-12-28T07:58:53.539Z,45.50
2022-12-28T08:00:55.532Z,45.60
2022-12-28T08:02:57.299Z,45.70
2022-12-28T08:04:59.116Z,45.70
2022-12-28T08:07:00.745Z,45.70
2022-12-28T08:09:02.888Z,45.70
2022-12-28T08:11:16.729Z,46.40
2022-12-28T08:13:19.251Z,45.80
2022-12-28T08:15:20.912Z,45.80
2022-12-28T08:17:22.682Z,45.70
2022-12-28T08:19:24.360Z,45.70
2022-12-28T08:21:31.821Z,45.50
2022-12-28T08:23:33.528Z,45.60
2022-12-28T08:25:35.202Z,45.60
2022-12-28T08:27:38.700Z,45.70
2022-12-28T08:29:40.438Z,45.70
2022-12-28T08:31:43.897Z,45.60
2022-12-28T08:33:46.644Z,45.60
2022-12-28T08:35:48.257Z,45.50
2022-12-28T08:37:49.919Z,45.50
2022-12-28T08:39:51.700Z,45.50
2022-12-28T08:41:53.347Z,45.60
2022-12-28T08:43:55.567Z,45.60
2022-12-28T08:46:02.843Z,45.50
2022-12-28T08:48:04.929Z,45.60
2022-12-28T08:50:07.424Z,45.50
2022-12-28T08:52:09.429Z,45.50
2022-12-28T08:54:13.637Z,45.50
2022-12-28T08:56:21.457Z,45.40
2022-12-28T08:58:23.323Z,45.40
2022-12-28T09:00:24.955Z,45.30
2022-12-28T09:02:26.746Z,45.30
2022-12-28T09:04:28.476Z,45.30
2022-12-28T09:06:32.917Z,45.20
2022-12-28T09:08:34.919Z,45.20
2022-12-28T09:10:36.576Z,45.20
2022-12-28T09:12:38.176Z,45.40
2022-12-28T09:14:39.815Z,45.30
2022-12-28T09:16:41.483Z,45.20
2022-12-28T09:18:44.576Z,45.30
2022-12-28T09:20:48.072Z,45.20
2022-12-28T09:22:49.845Z,45.30
2022-12-28T09:24:51.556Z,45.30
2022-12-28T09:26:55.254Z,45.20
2022-12-28T09:28:59.805Z,45.20
2022-12-28T09:31:05.814Z,45.20
2022-12-28T09:33:26.554Z,45.20
2022-12-28T09:35:28.206Z,45.20
2022-12-28T09:37:29.821Z,45.10
2022-12-28T09:39:31.707Z,45.20
2022-12-28T09:41:45.237Z,45.20
2022-12-28T09:43:47.208Z,45.30
2022-12-28T09:45:49.086Z,45.70
2022-12-28T09:47:55.963Z,44.90
2022-12-28T09:49:57.753Z,45.00
2022-12-28T09:52:10.759Z,44.80
2022-12-28T09:54:12.454Z,44.60
2022-12-28T09:56:50.069Z,44.30
2022-12-28T09:58:52.217Z,44.40
2022-12-28T10:00:59.554Z,44.40
2022-12-28T10:03:05.247Z,44.40
2022-12-28T10:05:07.379Z,44.90
2022-12-28T10:07:11.787Z,44.20
2022-12-28T10:09:27.076Z,44.30
2022-12-28T10:11:34.196Z,44.30
2022-12-28T10:13:54.771Z,44.20
2022-12-28T10:15:58.016Z,44.30
2022-12-28T10:17:59.662Z,44.20
2022-12-28T10:20:01.381Z,44.10
2022-12-28T10:22:05.863Z,44.10
2022-12-28T10:26:30.201Z,44.20
2022-12-28T10:28:58.041Z,44.10
2022-12-28T10:31:08.396Z,44.10
2022-12-28T10:33:16.093Z,44.10
2022-12-28T10:35:43.127Z,44.10
2022-12-28T10:37:44.900Z,44.10
2022-12-28T10:40:06.322Z,44.10
2022-12-28T10:42:24.653Z,44.10
2022-12-28T10:44:41.841Z,44.00
2022-12-28T10:47:02.601Z,44.00
2022-12-28T10:49:04.459Z,43.90
2022-12-28T10:51:22.723Z,43.80
2022-12-28T10:53:31.280Z,43.80
2022-12-28T10:55:34.265Z,43.80
2022-12-28T10:57:38.021Z,43.90
2022-12-28T10:59:40.611Z,43.90
2022-12-28T11:01:43.323Z,43.90
2022-12-28T11:03:58.899Z,44.00
2022-12-28T11:06:26.369Z,43.90
2022-12-28T11:08:29.026Z,44.00
2022-12-28T11:10:32.328Z,43.90
2022-12-28T11:12:36.885Z,43.90
2022-12-28T11:14:39.231Z,43.90
2022-12-28T11:16:42.257Z,43.90
2022-12-28T11:18:44.020Z,43.90
2022-12-28T11:20:51.224Z,43.90
2022-12-28T11:22:53.484Z,43.90
2022-12-28T11:24:56.923Z,43.80
2022-12-28T11:26:58.528Z,43.80
2022-12-28T11:29:01.998Z,43.80
2022-12-28T11:31:05.291Z,43.80
2022-12-28T11:33:10.024Z,43.70
2022-12-28T11:35:20.778Z,43.70
2022-12-28T11:37:22.415Z,43.70
2022-12-28T11:39:26.818Z,43.60
2022-12-28T11:41:33.870Z,43.70
2022-12-28T11:43:39.767Z,43.60
2022-12-28T11:45:51.823Z,43.60
2022-12-28T11:48:32.237Z,43.60
2022-12-28T11:50:34.268Z,43.50
2022-12-28T11:52:45.877Z,43.50
2022-12-28T11:54:51.964Z,43.50
2022-12-28T11:56:53.573Z,43.50
2022-12-28T11:59:20.466Z,43.50
2022-12-28T12:01:28.486Z,43.40
2022-12-28T12:03:58.029Z,43.40
2022-12-28T12:05:59.827Z,43.40
2022-12-28T12:08:02.626Z,43.40
2022-12-28T12:10:34.273Z,43.40
2022-12-28T12:12:46.465Z,43.50
2022-12-28T12:14:57.851Z,43.50
2022-12-28T12:17:23.237Z,43.40
2022-12-28T12:19:31.546Z,43.40
2022-12-28T12:21:41.794Z,44.10
2022-12-28T12:23:51.963Z,44.10
2022-12-28T12:25:56.075Z,43.30
2022-12-28T12:28:01.594Z,43.20
2022-12-28T12:30:07.900Z,43.30
2022-12-28T12:32:18.032Z,43.20
2022-12-28T12:34:31.521Z,43.40
2022-12-28T12:36:49.992Z,43.30
2022-12-28T12:39:16.562Z,43.30
2022-12-28T12:41:18.158Z,43.30
2022-12-28T12:43:31.905Z,43.20
2022-12-28T12:46:02.716Z,43.20
2022-12-28T12:48:16.748Z,43.20
2022-12-28T12:50:44.534Z,43.70
2022-12-28T12:53:04.268Z,43.00
2022-12-28T12:55:12.704Z,43.00
2022-12-28T12:57:22.112Z,43.00
2022-12-28T12:59:35.234Z,42.90
2022-12-28T13:01:52.521Z,43.00
2022-12-28T13:04:06.555Z,42.90
2022-12-28T13:06:10.387Z,42.90
2022-12-28T13:08:22.485Z,42.90
2022-12-28T13:10:32.624Z,42.90
2022-12-28T13:12:36.112Z,42.90
2022-12-28T13:14:37.737Z,42.90
2022-12-28T13:16:39.443Z,42.90
2022-12-28T13:18:51.813Z,42.80
2022-12-28T13:20:59.615Z,42.90
2022-12-28T13:23:01.257Z,42.90
2022-12-28T13:25:03.011Z,42.90
2022-12-28T13:27:20.208Z,42.90
2022-12-28T13:29:24.658Z,42.90
2022-12-28T13:31:38.492Z,42.90
2022-12-28T13:33:40.125Z,42.90
2022-12-28T13:35:42.366Z,42.90
2022-12-28T13:37:44.024Z,42.90
2022-12-28T13:39:47.827Z,42.80
2022-12-28T13:41:52.681Z,42.90
2022-12-28T13:44:08.434Z,42.80
2022-12-28T13:46:15.259Z,42.80
2022-12-28T13:48:16.988Z,42.80
2022-12-28T13:50:29.494Z,42.80
2022-12-28T13:52:42.892Z,42.80
2022-12-28T13:54:50.403Z,42.80
2022-12-28T13:57:14.332Z,42.80
2022-12-28T13:59:19.790Z,42.80
2022-12-28T14:01:25.186Z,42.80
2022-12-28T14:03:27.489Z,42.80
2022-12-28T14:05:30.775Z,42.80
2022-12-28T14:07:36.289Z,42.80
2022-12-28T14:09:38.135Z,42.80
2022-12-28T14:11:42.364Z,42.70
2022-12-28T14:13:44.842Z,42.70
2022-12-28T14:15:48.018Z,42.70
2022-12-28T14:17:51.696Z,42.70
2022-12-28T14:19:57.203Z,42.70
2022-12-28T14:21:59.268Z,42.70
2022-12-28T14:24:08.098Z,42.80
2022-12-28T14:26:19.304Z,42.70
2022-12-28T14:28:35.842Z,42.70
2022-12-28T14:30:41.033Z,42.70
2022-12-28T14:32:43.284Z,42.70
2022-12-28T14:34:46.799Z,42.70
2022-12-28T14:36:54.514Z,42.80
2022-12-28T14:39:04.405Z,42.70
2022-12-28T14:41:07.091Z,42.70
2022-12-28T14:43:25.519Z,42.70
2022-12-28T14:46:06.692Z,42.70
2022-12-28T14:48:25.499Z,42.60
2022-12-28T14:50:29.810Z,42.50
2022-12-28T14:52:37.845Z,42.60
2022-12-28T14:54:50.536Z,42.50
2022-12-28T14:56:58.437Z,42.50
2022-12-28T14:59:01.791Z,42.50
2022-12-28T15:01:06.354Z,42.40
2022-12-28T15:03:20.604Z,42.40
2022-12-28T15:05:48.104Z,42.40
2022-12-28T15:07:49.699Z,42.30
2022-12-28T15:09:51.314Z,42.30
2022-12-28T15:12:13.523Z,42.40
2022-12-28T15:14:15.389Z,42.30
2022-12-28T15:16:22.830Z,42.30
2022-12-28T15:18:25.460Z,42.30
2022-12-28T15:20:27.187Z,42.20
2022-12-28T15:22:28.837Z,42.20
2022-12-28T15:24:34.060Z,42.20
2022-12-28T15:26:36.123Z,42.10
2022-12-28T15:28:38.097Z,42.10
2022-12-28T15:30:44.061Z,42.10
2022-12-28T15:32:45.815Z,42.10
2022-12-28T15:34:47.459Z,42.10
2022-12-28T15:36:49.180Z,42.10
2022-12-28T15:38:50.863Z,42.10
2022-12-28T15:40:55.286Z,42.10
2022-12-28T15:42:57.018Z,42.10
2022-12-28T15:44:58.676Z,42.00
2022-12-28T15:47:00.665Z,42.00
2022-12-28T15:49:03.472Z,42.00
2022-12-28T15:51:05.263Z,42.00
2022-12-28T15:53:06.905Z,39.30
2022-12-28T15:55:08.992Z,40.50
2022-12-28T15:57:14.109Z,41.80
2022-12-28T15:59:15.740Z,41.90
2022-12-28T16:01:17.539Z,42.10
2022-12-28T16:03:19.490Z,42.10
2022-12-28T16:05:22.018Z,42.10
2022-12-28T16:07:23.631Z,42.30
2022-12-28T16:09:25.219Z,42.30
2022-12-28T16:11:32.253Z,42.60
2022-12-28T16:13:34.040Z,42.40
2022-12-28T16:15:36.427Z,42.40
2022-12-28T16:17:45.985Z,42.40
2022-12-28T16:19:52.878Z,42.30
2022-12-28T16:21:54.603Z,42.50
2022-12-28T16:23:58.519Z,42.10
2022-12-28T16:26:00.274Z,42.50
2022-12-28T16:28:01.953Z,42.70
2022-12-28T16:30:04.234Z,42.60
2022-12-28T16:32:06.334Z,42.60
2022-12-28T16:34:12.332Z,42.60
2022-12-28T16:36:16.095Z,42.60
2022-12-28T16:38:19.904Z,42.70
2022-12-28T16:40:21.526Z,42.70
2022-12-28T16:42:23.202Z,42.80
2022-12-28T16:44:27.330Z,42.80
2022-12-28T16:46:29.147Z,43.10
2022-12-28T16:48:30.751Z,43.10
2022-12-28T16:50:33.105Z,42.90
2022-12-28T16:52:35.096Z,42.80
2022-12-28T16:54:37.418Z,42.60
2022-12-28T16:56:39.080Z,42.60
2022-12-28T16:58:44.961Z,42.50
2022-12-28T17:00:49.177Z,42.50
2022-12-28T17:02:51.160Z,42.50
2022-12-28T17:04:52.798Z,42.70
2022-12-28T17:06:54.530Z,42.60
2022-12-28T17:08:56.522Z,42.60
2022-12-28T17:10:58.425Z,42.60
2022-12-28T17:13:00.144Z,42.60
2022-12-28T17:15:05.218Z,42.70
2022-12-28T17:17:07.443Z,42.80
2022-12-28T17:19:09.287Z,42.90
2022-12-28T17:21:10.963Z,43.10
2022-12-28T17:23:13.247Z,43.10
2022-12-28T17:25:14.960Z,43.00
2022-12-28T17:27:19.276Z,43.00
2022-12-28T17:29:21.375Z,43.00
2022-12-28T17:31:23.983Z,43.00
2022-12-28T17:33:25.736Z,43.00
2022-12-28T17:35:27.545Z,43.00
2022-12-28T17:37:29.163Z,43.00
2022-12-28T17:39:36.012Z,42.90
2022-12-28T17:41:41.142Z,42.80
2022-12-28T17:43:47.637Z,42.90
2022-12-28T17:45:49.299Z,42.90
2022-12-28T17:47:51.373Z,42.80
2022-12-28T17:49:53.036Z,42.90
2022-12-28T17:51:54.674Z,42.80
2022-12-28T17:53:57.140Z,42.90
2022-12-28T17:56:03.091Z,43.00
2022-12-28T17:58:05.181Z,42.90
2022-12-28T18:00:07.565Z,42.90
2022-12-28T18:02:12.817Z,42.90
2022-12-28T18:04:15.326Z,42.90
2022-12-28T18:06:16.943Z,43.00
2022-12-28T18:08:19.862Z,43.00
2022-12-28T18:10:22.474Z,43.10
2022-12-28T18:12:24.147Z,43.30
2022-12-28T18:14:26.697Z,43.40
2022-12-28T18:16:28.463Z,43.60
2022-12-28T18:18:30.549Z,43.70
2022-12-28T18:20:32.368Z,43.80
2022-12-28T18:22:34.091Z,43.90
2022-12-28T18:24:35.737Z,43.80
2022-12-28T18:26:37.428Z,43.90
2022-12-28T18:28:39.044Z,43.60
2022-12-28T18:30:41.615Z,43.50
2022-12-28T18:32:43.594Z,43.50
2022-12-28T18:34:45.223Z,43.50
2022-12-28T18:36:46.913Z,43.50
2022-12-28T18:38:49.023Z,43.50
2022-12-28T18:40:55.689Z,43.30
2022-12-28T18:42:58.192Z,43.30
2022-12-28T18:44:59.856Z,43.40
2022-12-28T18:47:01.510Z,44.00
2022-12-28T18:49:03.258Z,43.30
2022-12-28T18:51:17.317Z,43.30
2022-12-28T18:53:19.001Z,43.20
2022-12-28T18:55:21.164Z,43.20
2022-12-28T18:57:22.797Z,43.20
2022-12-28T18:59:24.931Z,43.30
2022-12-28T19:03:58.804Z,43.30
2022-12-28T19:06:03.456Z,43.30
2022-12-28T19:08:05.329Z,43.40
2022-12-28T19:10:14.074Z,43.50
2022-12-28T19:12:15.863Z,43.40
2022-12-28T19:14:17.532Z,43.40
2022-12-28T19:16:25.689Z,43.40
2022-12-28T19:18:32.500Z,43.40
2022-12-28T19:20:34.225Z,43.40
2022-12-28T19:22:35.843Z,43.50
2022-12-28T19:24:37.498Z,43.40
2022-12-28T19:26:39.317Z,43.40
2022-12-28T19:28:41.068Z,43.40
2022-12-28T19:30:42.789Z,43.40
2022-12-28T19:32:44.416Z,43.40
2022-12-28T19:34:46.028Z,43.50
2022-12-28T19:36:47.680Z,43.50
2022-12-28T19:38:49.406Z,43.50
2022-12-28T19:40:52.324Z,43.50
2022-12-28T19:42:53.941Z,43.60
2022-12-28T19:44:55.585Z,43.50
2022-12-28T19:46:58.686Z,43.50
2022-12-28T19:49:02.581Z,43.50
2022-12-28T19:51:04.768Z,43.60
2022-12-28T19:53:06.420Z,43.50
2022-12-28T19:55:08.431Z,43.50
2022-12-28T19:57:10.072Z,43.60
2022-12-28T19:59:11.733Z,43.50
2022-12-28T20:01:19.581Z,43.50
2022-12-28T20:03:21.387Z,43.60
2022-12-28T20:05:23.100Z,43.50
2022-12-28T20:07:24.776Z,43.50
2022-12-28T20:09:26.446Z,43.40
2022-12-28T20:11:29.351Z,44.10
2022-12-28T20:13:32.222Z,43.50
2022-12-28T20:15:33.881Z,43.60
2022-12-28T20:17:35.660Z,43.60
2022-12-28T20:19:37.278Z,43.80
2022-12-28T20:21:41.453Z,43.70
2022-12-28T20:23:43.309Z,43.60
2022-12-28T20:25:52.508Z,43.60
2022-12-28T20:27:54.511Z,43.60
2022-12-28T20:29:56.157Z,43.60
2022-12-28T20:31:58.049Z,43.60
2022-12-28T20:33:59.906Z,43.60
2022-12-28T20:36:06.905Z,43.60
2022-12-28T20:38:10.021Z,43.60
2022-12-28T20:40:11.934Z,43.60
2022-12-28T20:42:33.255Z,43.70
2022-12-28T20:44:34.940Z,43.70
2022-12-28T20:46:37.589Z,43.60
2022-12-28T20:48:39.289Z,43.60
2022-12-28T20:50:40.915Z,43.60
2022-12-28T20:52:42.594Z,43.70
2022-12-28T20:54:44.214Z,43.60
2022-12-28T20:56:52.354Z,43.70
2022-12-28T20:58:56.914Z,43.70
2022-12-28T21:01:06.652Z,43.70
2022-12-28T21:03:08.427Z,43.60
2022-12-28T21:05:10.777Z,43.60
2022-12-28T21:07:12.435Z,43.70
2022-12-28T21:09:14.083Z,43.70
2022-12-28T21:11:15.715Z,43.70
2022-12-28T21:13:17.332Z,43.60
2022-12-28T21:15:18.978Z,43.60
2022-12-28T21:17:20.644Z,43.70
2022-12-28T21:19:22.588Z,43.60
2022-12-28T21:21:24.221Z,43.60
2022-12-28T21:23:27.649Z,43.70
2022-12-28T21:25:33.278Z,43.60
2022-12-28T21:27:34.933Z,43.60
2022-12-28T21:29:36.754Z,43.60
2022-12-28T21:31:38.429Z,43.60
2022-12-28T21:33:41.057Z,43.60
2022-12-28T21:35:42.711Z,43.60
2022-12-28T21:37:44.330Z,43.50
2022-12-28T21:39:46.015Z,43.60
2022-12-28T21:41:50.709Z,43.60
2022-12-28T21:43:52.396Z,43.50
2022-12-28T21:46:09.183Z,43.50
2022-12-28T21:48:10.875Z,43.50
2022-12-28T21:50:12.581Z,43.50
2022-12-28T21:52:14.256Z,43.50
2022-12-28T21:54:21.269Z,43.60
2022-12-28T21:56:23.085Z,43.60
2022-12-28T21:58:24.689Z,43.50
2022-12-28T22:00:44.797Z,43.50
2022-12-28T22:03:04.979Z,43.60
2022-12-28T22:05:25.409Z,43.60
2022-12-28T22:07:27.598Z,43.70
2022-12-28T22:09:47.689Z,43.90
2022-12-28T22:12:08.054Z,43.90
2022-12-28T22:14:09.797Z,43.90
2022-12-28T22:16:11.436Z,44.00
2022-12-28T22:18:36.647Z,44.00
2022-12-28T22:20:38.108Z,44.00
2022-12-28T22:22:41.192Z,44.10
2022-12-28T22:24:42.818Z,44.10
2022-12-28T22:26:44.460Z,44.10
2022-12-28T22:28:46.088Z,44.10
2022-12-28T22:30:47.734Z,44.20
2022-12-28T22:32:49.451Z,44.20
2022-12-28T22:34:51.182Z,44.30
2022-12-28T22:36:52.839Z,44.20
2022-12-28T22:38:54.594Z,44.30
2022-12-28T22:40:57.683Z,44.30
2022-12-28T22:42:59.347Z,44.40
2022-12-28T22:45:00.962Z,44.40
2022-12-28T22:47:02.813Z,44.40
2022-12-28T22:49:04.472Z,44.40
2022-12-28T22:51:09.283Z,44.50
2022-12-28T22:53:11.080Z,44.50
2022-12-28T22:55:13.245Z,44.50
2022-12-28T22:57:14.877Z,44.50
2022-12-28T22:59:16.541Z,44.50
2022-12-28T23:01:19.599Z,44.50
2022-12-28T23:03:21.428Z,44.50
2022-12-28T23:05:23.095Z,44.50
2022-12-28T23:07:24.720Z,44.50
2022-12-28T23:09:26.443Z,44.50
2022-12-28T23:11:37.195Z,44.60
2022-12-28T23:13:38.827Z,44.50
2022-12-28T23:15:40.457Z,44.60
2022-12-28T23:17:42.195Z,44.60
2022-12-28T23:20:04.274Z,44.60
2022-12-28T23:22:25.897Z,44.60
2022-12-28T23:24:46.277Z,44.60
2022-12-28T23:27:06.766Z,44.60
2022-12-28T23:29:08.379Z,44.60
2022-12-28T23:31:10.065Z,44.60
2022-12-28T23:33:11.783Z,44.70
2022-12-28T23:35:13.913Z,44.70
2022-12-28T23:37:15.621Z,44.70
2022-12-28T23:39:17.258Z,45.40
2022-12-28T23:41:37.468Z,44.70
2022-12-28T23:43:39.110Z,44.70
2022-12-28T23:45:40.782Z,44.70
2022-12-28T23:47:43.692Z,45.40
2022-12-28T23:49:46.110Z,44.70
2022-12-28T23:51:47.764Z,44.70
2022-12-28T23:53:49.493Z,44.70
2022-12-28T23:55:51.132Z,44.70
2022-12-28T23:57:52.823Z,44.70
2022-12-28T23:59:54.708Z,44.70
